createdAt,value
2022-11-18T00:05:20.925Z,96792.09
2022-11-18T00:10:42.624Z,96785.97
2022-11-18T00:16:07.147Z,96788.97
2022-11-18T00:21:28.898Z,96785.28
2022-11-18T00:26:51.218Z,96779.34
2022-11-18T00:32:12.950Z,96784.44
2022-11-18T00:37:34.736Z,96792.56
2022-11-18T00:42:56.441Z,96792.31
2022-11-18T00:48:21.609Z,96803.66
2022-11-18T00:53:43.423Z,96797.13
2022-11-18T00:59:05.275Z,96796.53
2022-11-18T01:04:27.025Z,96797.94
2022-11-18T01:09:48.725Z,96799.38
2022-11-18T01:15:10.464Z,96794.78
2022-11-18T01:20:33.046Z,96802.00
2022-11-18T01:25:55.551Z,96805.06
2022-11-18T01:31:19.184Z,96799.03
2022-11-18T01:36:40.964Z,96798.31
2022-11-18T01:42:02.710Z,96812.94
2022-11-18T01:47:31.532Z,96815.75
2022-11-18T01:52:58.465Z,96815.16
2022-11-18T01:58:46.572Z,96836.16
2022-11-18T02:04:09.822Z,96837.59
2022-11-18T02:09:31.960Z,96835.41
2022-11-18T02:14:53.953Z,96842.22
2022-11-18T02:20:21.296Z,96838.66
2022-11-18T02:26:02.615Z,96844.72
2022-11-18T02:31:31.268Z,96853.41
2022-11-18T02:37:03.891Z,96847.41
2022-11-18T02:42:30.413Z,96856.84
2022-11-18T02:47:54.638Z,96858.41
2022-11-18T02:53:20.138Z,96853.31
2022-11-18T02:58:41.834Z,96862.47
2022-11-18T03:04:03.659Z,96867.81
2022-11-18T03:09:31.197Z,96881.94
2022-11-18T03:15:19.425Z,96893.41
2022-11-18T03:20:54.140Z,96901.56
2022-11-18T03:26:25.686Z,96911.38
2022-11-18T03:32:01.912Z,96910.41
2022-11-18T03:37:26.748Z,96926.41
2022-11-18T03:42:52.709Z,96943.28
2022-11-18T03:48:17.479Z,96950.63
2022-11-18T03:53:50.897Z,96955.34
2022-11-18T03:59:27.280Z,96968.63
2022-11-18T04:04:51.893Z,96970.28
2022-11-18T04:10:18.020Z,96968.75
2022-11-18T04:15:42.504Z,96979.19
2022-11-18T04:21:04.383Z,96981.31
2022-11-18T04:26:26.059Z,96982.38
2022-11-18T04:31:47.747Z,96990.31
2022-11-18T04:37:09.415Z,97000.59
2022-11-18T04:42:31.234Z,97001.44
2022-11-18T04:47:52.933Z,96996.94
2022-11-18T04:53:14.604Z,96997.78
2022-11-18T04:58:36.275Z,96998.88
2022-11-18T05:04:00.595Z,97009.03
2022-11-18T05:09:26.093Z,97019.59
2022-11-18T05:14:52.073Z,97023.50
2022-11-18T05:20:14.316Z,97024.47
2022-11-18T05:25:36.048Z,97028.84
2022-11-18T05:30:57.773Z,97027.09
2022-11-18T05:36:21.185Z,97028.78
2022-11-18T05:42:01.356Z,97042.03
2022-11-18T05:47:24.892Z,97043.56
2022-11-18T05:52:46.558Z,97055.38
2022-11-18T05:58:08.224Z,97064.13
2022-11-18T06:03:34.573Z,97061.63
2022-11-18T06:09:02.374Z,97071.00
2022-11-18T06:14:33.609Z,97076.53
2022-11-18T06:19:56.687Z,97077.34
2022-11-18T06:25:18.778Z,97082.03
2022-11-18T06:30:40.581Z,97086.06
2022-11-18T06:36:02.571Z,97097.44
2022-11-18T06:41:24.294Z,97103.03
2022-11-18T06:46:58.235Z,97104.75
2022-11-18T06:52:22.656Z,97113.16
2022-11-18T06:57:45.078Z,97119.94
2022-11-18T07:03:06.740Z,97121.84
2022-11-18T07:08:28.552Z,97125.41
2022-11-18T07:13:50.678Z,97137.97
2022-11-18T07:19:13.772Z,97147.69
2022-11-18T07:24:35.524Z,97154.88
2022-11-18T07:29:57.208Z,97155.06
2022-11-18T07:35:18.878Z,97161.38
2022-11-18T07:40:40.594Z,97171.13
2022-11-18T07:46:22.282Z,97174.78
2022-11-18T07:51:43.964Z,97182.03
2022-11-18T07:57:05.692Z,97182.03
2022-11-18T08:02:27.393Z,97190.81
2022-11-18T08:07:49.210Z,97209.88
2022-11-18T08:13:10.885Z,97209.69
2022-11-18T08:18:32.706Z,97217.84
2022-11-18T08:23:56.557Z,97229.28
2022-11-18T08:29:24.570Z,97232.53
2022-11-18T08:34:46.856Z,97244.41
2022-11-18T08:40:09.522Z,97240.41
2022-11-18T08:45:31.231Z,97246.88
2022-11-18T08:50:53.571Z,97251.75
2022-11-18T08:56:18.563Z,97250.31
2022-11-18T09:01:42.530Z,97256.53
2022-11-18T09:07:04.336Z,97258.50
2022-11-18T09:12:26.102Z,97267.63
2022-11-18T09:17:47.753Z,97262.84
2022-11-18T09:23:09.534Z,97278.59
2022-11-18T09:28:31.545Z,97273.44
2022-11-18T09:33:53.364Z,97289.75
2022-11-18T09:39:15.283Z,97287.25
2022-11-18T09:44:49.555Z,97285.19
2022-11-18T09:50:47.367Z,97297.59
2022-11-18T09:55:57.265Z,97305.81
2022-11-18T10:01:21.499Z,97310.94
2022-11-18T10:06:45.001Z,97311.03
2022-11-18T10:12:16.003Z,97309.78
2022-11-18T10:18:08.899Z,97315.59
2022-11-18T10:23:50.585Z,97321.25
2022-11-18T10:29:12.359Z,97326.03
2022-11-18T10:34:45.632Z,97333.13
2022-11-18T10:40:24.422Z,97329.41
2022-11-18T10:45:46.121Z,97331.78
2022-11-18T10:51:23.047Z,97331.84
2022-11-18T10:56:58.080Z,97335.81
2022-11-18T11:02:32.602Z,97334.75
2022-11-18T11:08:34.306Z,97341.84
2022-11-18T11:13:46.089Z,97344.59
2022-11-18T11:19:12.093Z,97347.44
2022-11-18T11:24:33.818Z,97355.81
2022-11-18T11:30:15.842Z,97358.75
2022-11-18T11:35:52.436Z,97356.63
2022-11-18T11:41:23.924Z,97343.16
2022-11-18T11:47:08.274Z,97344.84
2022-11-18T11:52:48.606Z,97362.63
2022-11-18T11:58:17.129Z,97366.34
2022-11-18T12:03:51.987Z,97364.06
2022-11-18T12:09:43.437Z,97358.50
2022-11-18T12:15:19.967Z,97353.19
2022-11-18T12:20:48.178Z,97376.53
2022-11-18T12:26:10.736Z,97364.31
2022-11-18T12:31:34.135Z,97373.22
2022-11-18T12:36:56.151Z,97384.56
2022-11-18T12:42:58.142Z,97381.34
2022-11-18T12:48:41.622Z,97380.16
2022-11-18T12:54:20.652Z,97383.50
2022-11-18T12:59:42.445Z,97383.72
2022-11-18T13:05:04.416Z,97389.88
2022-11-18T13:10:30.583Z,97397.94
2022-11-18T13:16:12.574Z,97393.94
2022-11-18T13:21:53.269Z,97388.38
2022-11-18T13:27:45.123Z,97391.34
2022-11-18T13:33:11.087Z,97393.97
2022-11-18T13:38:32.862Z,97398.69
2022-11-18T13:43:54.592Z,97382.34
2022-11-18T13:49:21.206Z,97389.84
2022-11-18T13:54:43.223Z,97395.00
2022-11-18T14:00:19.590Z,97402.09
2022-11-18T14:05:41.650Z,97392.41
2022-11-18T14:11:05.000Z,97394.13
2022-11-18T14:16:35.919Z,97404.81
2022-11-18T14:22:13.631Z,97400.31
2022-11-18T14:27:39.466Z,97413.50
2022-11-18T14:33:20.663Z,97417.09
2022-11-18T14:44:30.517Z,97420.41
2022-11-18T14:49:52.278Z,97422.03
2022-11-18T14:55:14.035Z,97428.66
2022-11-18T15:00:35.752Z,97425.47
2022-11-18T15:05:57.462Z,97427.13
2022-11-18T15:11:19.605Z,97439.28
2022-11-18T15:16:41.328Z,97437.25
2022-11-18T15:22:03.047Z,97452.69
2022-11-18T15:27:24.876Z,97461.81
2022-11-18T15:32:46.570Z,97471.38
2022-11-18T15:38:11.063Z,97473.63
2022-11-18T15:43:32.768Z,97483.91
2022-11-18T15:48:55.597Z,97482.22
2022-11-18T15:54:17.706Z,97477.16
2022-11-18T15:59:39.634Z,97477.75
2022-11-18T16:05:01.374Z,97482.88
2022-11-18T16:10:41.464Z,97485.59
2022-11-18T16:16:03.225Z,97492.81
2022-11-18T16:21:25.478Z,97482.81
2022-11-18T16:26:47.770Z,97496.25
2022-11-18T16:32:13.353Z,97492.00
2022-11-18T16:37:35.007Z,97501.28
2022-11-18T16:42:56.715Z,97498.03
2022-11-18T16:48:19.658Z,97505.38
2022-11-18T16:53:41.363Z,97514.34
2022-11-18T16:59:04.686Z,97516.84
2022-11-18T17:04:28.618Z,97513.28
2022-11-18T17:09:50.363Z,97531.84
2022-11-18T17:15:12.442Z,97539.69
2022-11-18T17:20:37.295Z,97541.47
2022-11-18T17:26:00.011Z,97554.91
2022-11-18T17:31:23.642Z,97553.91
2022-11-18T17:36:45.666Z,97564.09
2022-11-18T17:42:18.021Z,97560.53
2022-11-18T17:47:39.704Z,97560.25
2022-11-18T17:53:01.421Z,97566.72
2022-11-18T17:58:23.118Z,97565.88
2022-11-18T18:03:44.890Z,97567.84
2022-11-18T18:09:06.658Z,97572.97
2022-11-18T18:14:28.415Z,97576.41
2022-11-18T18:19:50.153Z,97580.78
2022-11-18T18:25:12.107Z,97581.63
2022-11-18T18:30:33.886Z,97583.50
2022-11-18T18:36:00.146Z,97596.31
2022-11-18T18:41:22.974Z,97599.63
2022-11-18T18:46:44.649Z,97602.03
2022-11-18T18:52:06.331Z,97599.34
2022-11-18T18:57:29.625Z,97600.38
2022-11-18T19:02:51.336Z,97603.00
2022-11-18T19:08:12.995Z,97616.19
2022-11-18T19:13:34.813Z,97613.69
2022-11-18T19:18:57.796Z,97610.38
2022-11-18T19:24:47.695Z,97615.41
2022-11-18T19:30:01.391Z,97633.44
2022-11-18T19:35:23.075Z,97644.81
2022-11-18T19:40:44.841Z,97640.50
2022-11-18T19:46:07.192Z,97643.41
2022-11-18T19:51:30.746Z,97633.50
2022-11-18T19:56:52.524Z,97634.53
2022-11-18T20:02:14.369Z,97629.03
2022-11-18T20:07:36.149Z,97632.91
2022-11-18T20:12:57.981Z,97623.09
2022-11-18T20:18:22.116Z,97633.66
2022-11-18T20:23:43.897Z,97636.03
2022-11-18T20:29:07.482Z,97642.91
2022-11-18T20:34:29.146Z,97635.66
2022-11-18T20:39:50.843Z,97632.91
2022-11-18T20:45:12.584Z,97631.63
2022-11-18T20:50:38.629Z,97630.94
2022-11-18T20:56:00.359Z,97633.44
2022-11-18T21:01:25.383Z,97636.56
2022-11-18T21:06:47.774Z,97646.16
2022-11-18T21:12:09.484Z,97654.91
2022-11-18T21:17:31.324Z,97666.97
2022-11-18T21:22:53.084Z,97656.25
2022-11-18T21:28:14.836Z,97663.44
2022-11-18T21:33:36.647Z,97668.66
2022-11-18T21:38:59.195Z,97667.78
2022-11-18T21:44:21.070Z,97668.34
2022-11-18T21:49:42.791Z,97674.00
2022-11-18T21:55:05.080Z,97676.25
2022-11-18T22:00:27.156Z,97673.06
2022-11-18T22:05:49.052Z,97689.91
2022-11-18T22:11:13.004Z,97694.81
2022-11-18T22:16:34.765Z,97689.22
2022-11-18T22:21:56.536Z,97698.81
2022-11-18T22:27:18.231Z,97702.44
2022-11-18T22:32:40.028Z,97704.91
2022-11-18T22:38:01.735Z,97703.53
2022-11-18T22:43:23.496Z,97712.34
2022-11-18T22:48:45.224Z,97712.53
2022-11-18T22:59:49.529Z,97716.63
2022-11-18T23:05:11.258Z,97715.41
2022-11-18T23:10:34.001Z,97707.63
2022-11-18T23:15:59.317Z,97713.59
2022-11-18T23:21:21.139Z,97714.22
2022-11-18T23:26:43.343Z,97716.16
2022-11-18T23:32:05.340Z,97723.13
2022-11-18T23:37:27.067Z,97721.25
2022-11-18T23:42:48.762Z,97718.19
2022-11-18T23:48:10.461Z,97713.38
2022-11-18T23:53:36.184Z,97708.25
2022-11-18T23:58:57.970Z,97709.56
